sensor_id;sensor_type;location;lat;lon;timestamp;temperature;humidity
75099;DHT22;63685;47.374;8.498;2022-10-16T00:02:20;21.00;68.40
75099;DHT22;63685;47.374;8.498;2022-10-16T00:04:45;21.00;68.30
75099;DHT22;63685;47.374;8.498;2022-10-16T00:07:11;21.00;68.40
75099;DHT22;63685;47.374;8.498;2022-10-16T00:09:37;21.00;68.30
75099;DHT22;63685;47.374;8.498;2022-10-16T00:12:03;21.00;68.30
75099;DHT22;63685;47.374;8.498;2022-10-16T00:14:30;21.00;68.40
75099;DHT22;63685;47.374;8.498;2022-10-16T00:16:55;21.00;68.40
75099;DHT22;63685;47.374;8.498;2022-10-16T00:19:21;21.00;68.40
75099;DHT22;63685;47.374;8.498;2022-10-16T00:21:46;21.10;68.50
75099;DHT22;63685;47.374;8.498;2022-10-16T00:24:12;21.00;68.30
75099;DHT22;63685;47.374;8.498;2022-10-16T00:26:39;21.00;68.40
75099;DHT22;63685;47.374;8.498;2022-10-16T00:29:06;21.10;68.40
75099;DHT22;63685;47.374;8.498;2022-10-16T00:31:32;21.00;68.30
75099;DHT22;63685;47.374;8.498;2022-10-16T00:33:57;21.00;68.30
75099;DHT22;63685;47.374;8.498;2022-10-16T00:36:25;21.00;68.40
75099;DHT22;63685;47.374;8.498;2022-10-16T00:38:53;21.00;68.40
75099;DHT22;63685;47.374;8.498;2022-10-16T00:41:21;21.00;68.40
75099;DHT22;63685;47.374;8.498;2022-10-16T00:43:49;21.00;68.40
75099;DHT22;63685;47.374;8.498;2022-10-16T00:48:48;21.00;68.40
75099;DHT22;63685;47.374;8.498;2022-10-16T00:51:14;21.00;68.40
75099;DHT22;63685;47.374;8.498;2022-10-16T00:53:40;21.00;68.40
75099;DHT22;63685;47.374;8.498;2022-10-16T00:56:06;21.00;69.00
75099;DHT22;63685;47.374;8.498;2022-10-16T00:58:32;21.00;68.40
75099;DHT22;63685;47.374;8.498;2022-10-16T01:00:57;21.00;68.40
75099;DHT22;63685;47.374;8.498;2022-10-16T01:03:26;21.00;68.30
75099;DHT22;63685;47.374;8.498;2022-10-16T01:06:05;21.00;68.40
75099;DHT22;63685;47.374;8.498;2022-10-16T01:08:48;21.00;68.40
75099;DHT22;63685;47.374;8.498;2022-10-16T01:11:23;21.00;68.40
75099;DHT22;63685;47.374;8.498;2022-10-16T01:13:57;21.00;68.40
75099;DHT22;63685;47.374;8.498;2022-10-16T01:16:44;21.00;68.40
75099;DHT22;63685;47.374;8.498;2022-10-16T01:22:00;21.00;68.40
75099;DHT22;63685;47.374;8.498;2022-10-16T01:24:41;21.00;68.40
75099;DHT22;63685;47.374;8.498;2022-10-16T01:27:14;21.00;68.40
75099;DHT22;63685;47.374;8.498;2022-10-16T01:35:19;21.00;68.40
75099;DHT22;63685;47.374;8.498;2022-10-16T01:37:51;21.00;68.40
75099;DHT22;63685;47.374;8.498;2022-10-16T01:40:20;21.00;68.40
75099;DHT22;63685;47.374;8.498;2022-10-16T01:43:02;21.00;68.40
75099;DHT22;63685;47.374;8.498;2022-10-16T01:45:31;21.00;68.40
75099;DHT22;63685;47.374;8.498;2022-10-16T01:47:58;21.00;68.40
75099;DHT22;63685;47.374;8.498;2022-10-16T01:50:26;21.00;68.40
75099;DHT22;63685;47.374;8.498;2022-10-16T01:52:52;21.00;68.40
75099;DHT22;63685;47.374;8.498;2022-10-16T01:55:23;21.00;68.40
75099;DHT22;63685;47.374;8.498;2022-10-16T01:57:51;21.00;68.40
75099;DHT22;63685;47.374;8.498;2022-10-16T02:00:20;21.00;68.40
75099;DHT22;63685;47.374;8.498;2022-10-16T02:02:49;21.00;68.40
75099;DHT22;63685;47.374;8.498;2022-10-16T02:05:24;21.00;68.40
75099;DHT22;63685;47.374;8.498;2022-10-16T02:07:52;21.00;68.50
75099;DHT22;63685;47.374;8.498;2022-10-16T02:10:18;21.00;68.40
75099;DHT22;63685;47.374;8.498;2022-10-16T02:12:56;21.00;68.40
75099;DHT22;63685;47.374;8.498;2022-10-16T02:15:22;21.00;68.40
75099;DHT22;63685;47.374;8.498;2022-10-16T02:17:48;21.00;68.40
75099;DHT22;63685;47.374;8.498;2022-10-16T02:20:14;21.00;68.40
75099;DHT22;63685;47.374;8.498;2022-10-16T02:22:43;21.00;68.40
75099;DHT22;63685;47.374;8.498;2022-10-16T02:25:31;21.00;68.40
75099;DHT22;63685;47.374;8.498;2022-10-16T02:28:14;21.00;68.70
75099;DHT22;63685;47.374;8.498;2022-10-16T02:31:01;21.00;68.40
75099;DHT22;63685;47.374;8.498;2022-10-16T02:33:29;20.90;68.30
75099;DHT22;63685;47.374;8.498;2022-10-16T02:35:55;21.00;68.40
75099;DHT22;63685;47.374;8.498;2022-10-16T02:38:23;21.00;68.40
75099;DHT22;63685;47.374;8.498;2022-10-16T02:40:49;21.00;68.40
75099;DHT22;63685;47.374;8.498;2022-10-16T02:43:15;21.00;68.40
75099;DHT22;63685;47.374;8.498;2022-10-16T02:45:41;20.90;68.30
75099;DHT22;63685;47.374;8.498;2022-10-16T02:48:07;20.90;68.30
75099;DHT22;63685;47.374;8.498;2022-10-16T02:50:33;21.00;68.40
75099;DHT22;63685;47.374;8.498;2022-10-16T02:52:58;21.00;68.40
75099;DHT22;63685;47.374;8.498;2022-10-16T02:55:24;21.00;68.50
75099;DHT22;63685;47.374;8.498;2022-10-16T02:57:50;21.00;68.50
75099;DHT22;63685;47.374;8.498;2022-10-16T03:00:16;21.00;68.50
75099;DHT22;63685;47.374;8.498;2022-10-16T03:02:42;21.00;68.50
75099;DHT22;63685;47.374;8.498;2022-10-16T03:05:08;21.00;68.50
75099;DHT22;63685;47.374;8.498;2022-10-16T03:07:34;21.00;68.50
75099;DHT22;63685;47.374;8.498;2022-10-16T03:10:00;20.90;68.50
75099;DHT22;63685;47.374;8.498;2022-10-16T03:12:28;21.00;68.50
75099;DHT22;63685;47.374;8.498;2022-10-16T03:14:55;21.00;68.50
75099;DHT22;63685;47.374;8.498;2022-10-16T03:17:22;21.00;68.50
75099;DHT22;63685;47.374;8.498;2022-10-16T03:19:47;21.00;68.40
75099;DHT22;63685;47.374;8.498;2022-10-16T03:22:13;21.00;68.40
75099;DHT22;63685;47.374;8.498;2022-10-16T03:24:38;21.00;68.40
75099;DHT22;63685;47.374;8.498;2022-10-16T03:27:04;21.00;68.40
75099;DHT22;63685;47.374;8.498;2022-10-16T03:29:30;21.00;68.40
75099;DHT22;63685;47.374;8.498;2022-10-16T03:31:56;21.00;68.40
75099;DHT22;63685;47.374;8.498;2022-10-16T03:34:22;21.00;68.40
75099;DHT22;63685;47.374;8.498;2022-10-16T03:36:47;21.00;68.40
75099;DHT22;63685;47.374;8.498;2022-10-16T03:39:13;20.90;68.30
75099;DHT22;63685;47.374;8.498;2022-10-16T03:41:39;21.00;68.40
75099;DHT22;63685;47.374;8.498;2022-10-16T03:44:04;21.00;68.40
75099;DHT22;63685;47.374;8.498;2022-10-16T03:46:30;21.00;68.40
75099;DHT22;63685;47.374;8.498;2022-10-16T03:48:55;21.00;68.40
75099;DHT22;63685;47.374;8.498;2022-10-16T03:51:21;21.00;68.40
75099;DHT22;63685;47.374;8.498;2022-10-16T03:53:46;21.00;68.40
75099;DHT22;63685;47.374;8.498;2022-10-16T03:56:12;21.00;68.40
75099;DHT22;63685;47.374;8.498;2022-10-16T03:58:37;21.00;68.40
75099;DHT22;63685;47.374;8.498;2022-10-16T04:01:03;20.90;68.30
75099;DHT22;63685;47.374;8.498;2022-10-16T04:03:28;20.90;68.30
75099;DHT22;63685;47.374;8.498;2022-10-16T04:05:54;21.00;68.40
75099;DHT22;63685;47.374;8.498;2022-10-16T04:08:20;21.00;68.40
75099;DHT22;63685;47.374;8.498;2022-10-16T04:10:45;21.00;68.30
75099;DHT22;63685;47.374;8.498;2022-10-16T04:13:11;21.00;68.40
75099;DHT22;63685;47.374;8.498;2022-10-16T04:15:37;20.90;68.30
75099;DHT22;63685;47.374;8.498;2022-10-16T04:18:04;20.90;68.30
75099;DHT22;63685;47.374;8.498;2022-10-16T04:20:29;20.90;68.40
75099;DHT22;63685;47.374;8.498;2022-10-16T04:22:55;20.90;68.30
75099;DHT22;63685;47.374;8.498;2022-10-16T04:25:21;20.90;68.40
75099;DHT22;63685;47.374;8.498;2022-10-16T04:27:47;20.90;68.40
75099;DHT22;63685;47.374;8.498;2022-10-16T04:30:12;20.90;68.40
75099;DHT22;63685;47.374;8.498;2022-10-16T04:32:38;20.90;68.40
75099;DHT22;63685;47.374;8.498;2022-10-16T04:35:04;21.00;68.40
75099;DHT22;63685;47.374;8.498;2022-10-16T04:37:29;20.90;68.40
75099;DHT22;63685;47.374;8.498;2022-10-16T04:39:55;21.00;68.40
75099;DHT22;63685;47.374;8.498;2022-10-16T04:42:21;21.00;68.50
75099;DHT22;63685;47.374;8.498;2022-10-16T04:44:46;20.90;69.00
75099;DHT22;63685;47.374;8.498;2022-10-16T04:47:12;21.00;68.50
75099;DHT22;63685;47.374;8.498;2022-10-16T04:49:38;20.90;68.40
75099;DHT22;63685;47.374;8.498;2022-10-16T04:52:04;20.90;68.40
75099;DHT22;63685;47.374;8.498;2022-10-16T04:54:29;20.90;68.50
75099;DHT22;63685;47.374;8.498;2022-10-16T04:56:55;20.90;68.40
75099;DHT22;63685;47.374;8.498;2022-10-16T04:59:21;21.00;68.50
75099;DHT22;63685;47.374;8.498;2022-10-16T05:01:47;21.00;68.50
75099;DHT22;63685;47.374;8.498;2022-10-16T05:04:14;20.90;68.50
75099;DHT22;63685;47.374;8.498;2022-10-16T05:06:40;20.90;68.40
75099;DHT22;63685;47.374;8.498;2022-10-16T05:09:06;21.00;68.50
75099;DHT22;63685;47.374;8.498;2022-10-16T05:11:32;21.00;68.40
75099;DHT22;63685;47.374;8.498;2022-10-16T05:13:58;21.00;68.50
75099;DHT22;63685;47.374;8.498;2022-10-16T05:16:24;21.00;68.50
75099;DHT22;63685;47.374;8.498;2022-10-16T05:18:51;21.00;68.40
75099;DHT22;63685;47.374;8.498;2022-10-16T05:21:16;21.00;68.40
75099;DHT22;63685;47.374;8.498;2022-10-16T05:23:42;20.90;68.40
75099;DHT22;63685;47.374;8.498;2022-10-16T05:26:08;21.00;68.40
75099;DHT22;63685;47.374;8.498;2022-10-16T05:28:34;20.90;68.40
75099;DHT22;63685;47.374;8.498;2022-10-16T05:31:03;21.00;68.40
75099;DHT22;63685;47.374;8.498;2022-10-16T05:33:29;21.00;68.50
75099;DHT22;63685;47.374;8.498;2022-10-16T05:35:54;20.90;68.40
75099;DHT22;63685;47.374;8.498;2022-10-16T05:38:20;20.90;68.40
75099;DHT22;63685;47.374;8.498;2022-10-16T05:40:51;20.90;68.40
75099;DHT22;63685;47.374;8.498;2022-10-16T05:43:18;20.90;68.40
75099;DHT22;63685;47.374;8.498;2022-10-16T05:45:43;20.90;68.40
75099;DHT22;63685;47.374;8.498;2022-10-16T05:48:09;20.90;68.40
75099;DHT22;63685;47.374;8.498;2022-10-16T05:50:34;20.90;68.40
75099;DHT22;63685;47.374;8.498;2022-10-16T05:53:00;21.00;68.40
75099;DHT22;63685;47.374;8.498;2022-10-16T05:55:25;20.90;68.40
75099;DHT22;63685;47.374;8.498;2022-10-16T05:57:54;21.00;68.40
75099;DHT22;63685;47.374;8.498;2022-10-16T06:00:19;20.90;68.40
75099;DHT22;63685;47.374;8.498;2022-10-16T06:02:45;20.90;68.40
75099;DHT22;63685;47.374;8.498;2022-10-16T06:05:11;20.90;68.40
75099;DHT22;63685;47.374;8.498;2022-10-16T06:07:36;20.90;68.30
75099;DHT22;63685;47.374;8.498;2022-10-16T06:10:03;20.90;68.40
75099;DHT22;63685;47.374;8.498;2022-10-16T06:12:29;20.90;68.30
75099;DHT22;63685;47.374;8.498;2022-10-16T06:14:54;20.90;68.30
75099;DHT22;63685;47.374;8.498;2022-10-16T06:17:20;20.90;68.30
75099;DHT22;63685;47.374;8.498;2022-10-16T06:19:45;20.90;68.40
75099;DHT22;63685;47.374;8.498;2022-10-16T06:22:11;20.90;68.30
75099;DHT22;63685;47.374;8.498;2022-10-16T06:24:37;20.90;68.30
75099;DHT22;63685;47.374;8.498;2022-10-16T06:27:04;20.90;68.30
75099;DHT22;63685;47.374;8.498;2022-10-16T06:29:29;20.90;68.30
75099;DHT22;63685;47.374;8.498;2022-10-16T06:31:55;20.90;68.30
75099;DHT22;63685;47.374;8.498;2022-10-16T06:34:21;20.90;68.40
75099;DHT22;63685;47.374;8.498;2022-10-16T06:36:46;21.00;68.40
75099;DHT22;63685;47.374;8.498;2022-10-16T06:39:12;21.00;68.40
75099;DHT22;63685;47.374;8.498;2022-10-16T06:41:37;21.00;68.40
75099;DHT22;63685;47.374;8.498;2022-10-16T06:44:07;21.00;68.40
75099;DHT22;63685;47.374;8.498;2022-10-16T06:46:33;21.00;68.40
75099;DHT22;63685;47.374;8.498;2022-10-16T06:48:59;21.00;68.40
75099;DHT22;63685;47.374;8.498;2022-10-16T06:51:25;21.00;68.40
75099;DHT22;63685;47.374;8.498;2022-10-16T06:53:53;21.00;68.30
75099;DHT22;63685;47.374;8.498;2022-10-16T06:56:22;21.00;68.30
75099;DHT22;63685;47.374;8.498;2022-10-16T06:58:49;21.00;68.30
75099;DHT22;63685;47.374;8.498;2022-10-16T07:01:17;21.00;68.30
75099;DHT22;63685;47.374;8.498;2022-10-16T07:03:44;21.00;68.20
75099;DHT22;63685;47.374;8.498;2022-10-16T07:06:12;21.00;68.20
75099;DHT22;63685;47.374;8.498;2022-10-16T07:08:41;21.00;68.30
75099;DHT22;63685;47.374;8.498;2022-10-16T07:11:16;21.00;68.60
75099;DHT22;63685;47.374;8.498;2022-10-16T07:13:42;21.00;68.30
75099;DHT22;63685;47.374;8.498;2022-10-16T07:18:36;21.00;68.30
75099;DHT22;63685;47.374;8.498;2022-10-16T07:21:05;21.00;68.30
75099;DHT22;63685;47.374;8.498;2022-10-16T07:23:31;21.00;68.20
75099;DHT22;63685;47.374;8.498;2022-10-16T07:25:56;21.00;68.30
75099;DHT22;63685;47.374;8.498;2022-10-16T07:28:22;21.00;68.30
75099;DHT22;63685;47.374;8.498;2022-10-16T07:30:48;21.00;68.30
75099;DHT22;63685;47.374;8.498;2022-10-16T07:33:13;21.00;68.30
75099;DHT22;63685;47.374;8.498;2022-10-16T07:35:48;21.00;68.30
75099;DHT22;63685;47.374;8.498;2022-10-16T07:38:13;21.00;68.30
75099;DHT22;63685;47.374;8.498;2022-10-16T07:40:39;21.00;68.30
75099;DHT22;63685;47.374;8.498;2022-10-16T07:43:04;21.00;68.30
75099;DHT22;63685;47.374;8.498;2022-10-16T07:45:30;21.00;68.30
75099;DHT22;63685;47.374;8.498;2022-10-16T07:47:56;21.00;68.30
75099;DHT22;63685;47.374;8.498;2022-10-16T07:50:21;21.00;68.20
75099;DHT22;63685;47.374;8.498;2022-10-16T07:52:47;21.00;68.20
75099;DHT22;63685;47.374;8.498;2022-10-16T07:55:12;21.10;68.20
75099;DHT22;63685;47.374;8.498;2022-10-16T07:57:38;21.10;68.20
75099;DHT22;63685;47.374;8.498;2022-10-16T08:00:04;21.10;68.20
75099;DHT22;63685;47.374;8.498;2022-10-16T08:02:31;21.10;68.10
75099;DHT22;63685;47.374;8.498;2022-10-16T08:04:56;21.10;68.10
75099;DHT22;63685;47.374;8.498;2022-10-16T08:07:22;21.20;68.10
75099;DHT22;63685;47.374;8.498;2022-10-16T08:09:50;21.20;68.20
75099;DHT22;63685;47.374;8.498;2022-10-16T08:12:17;21.20;68.10
75099;DHT22;63685;47.374;8.498;2022-10-16T08:14:42;21.30;68.10
75099;DHT22;63685;47.374;8.498;2022-10-16T08:17:08;21.30;68.00
75099;DHT22;63685;47.374;8.498;2022-10-16T08:19:33;21.30;67.90
75099;DHT22;63685;47.374;8.498;2022-10-16T08:22:00;21.40;67.90
75099;DHT22;63685;47.374;8.498;2022-10-16T08:24:26;21.40;67.80
75099;DHT22;63685;47.374;8.498;2022-10-16T08:26:53;21.50;67.70
75099;DHT22;63685;47.374;8.498;2022-10-16T08:29:19;21.50;67.60
75099;DHT22;63685;47.374;8.498;2022-10-16T08:31:45;21.60;67.70
75099;DHT22;63685;47.374;8.498;2022-10-16T08:34:10;21.60;67.40
75099;DHT22;63685;47.374;8.498;2022-10-16T08:36:36;21.70;67.30
75099;DHT22;63685;47.374;8.498;2022-10-16T08:39:02;21.70;67.30
75099;DHT22;63685;47.374;8.498;2022-10-16T08:47:25;21.90;67.00
75099;DHT22;63685;47.374;8.498;2022-10-16T08:50:00;21.90;66.90
75099;DHT22;63685;47.374;8.498;2022-10-16T08:52:33;22.00;66.80
75099;DHT22;63685;47.374;8.498;2022-10-16T08:55:00;22.00;67.30
75099;DHT22;63685;47.374;8.498;2022-10-16T08:57:27;22.00;66.60
75099;DHT22;63685;47.374;8.498;2022-10-16T08:59:53;22.10;66.50
75099;DHT22;63685;47.374;8.498;2022-10-16T09:04:53;22.20;66.40
75099;DHT22;63685;47.374;8.498;2022-10-16T09:10:43;22.30;66.10
75099;DHT22;63685;47.374;8.498;2022-10-16T09:13:28;22.30;65.90
75099;DHT22;63685;47.374;8.498;2022-10-16T09:18:52;22.40;65.80
75099;DHT22;63685;47.374;8.498;2022-10-16T09:23:49;22.50;65.60
75099;DHT22;63685;47.374;8.498;2022-10-16T09:26:16;22.60;65.50
75099;DHT22;63685;47.374;8.498;2022-10-16T09:28:43;22.60;65.40
75099;DHT22;63685;47.374;8.498;2022-10-16T09:31:21;22.60;65.30
75099;DHT22;63685;47.374;8.498;2022-10-16T09:33:54;22.70;65.30
75099;DHT22;63685;47.374;8.498;2022-10-16T09:36:21;22.70;65.20
75099;DHT22;63685;47.374;8.498;2022-10-16T09:38:49;22.70;65.20
75099;DHT22;63685;47.374;8.498;2022-10-16T09:41:22;22.80;65.10
75099;DHT22;63685;47.374;8.498;2022-10-16T09:43:59;22.80;65.00
75099;DHT22;63685;47.374;8.498;2022-10-16T09:46:28;22.80;64.90
75099;DHT22;63685;47.374;8.498;2022-10-16T09:48:57;22.80;64.80
75099;DHT22;63685;47.374;8.498;2022-10-16T09:51:27;22.80;64.80
75099;DHT22;63685;47.374;8.498;2022-10-16T09:54:01;22.90;64.90
75099;DHT22;63685;47.374;8.498;2022-10-16T09:56:34;22.90;64.80
75099;DHT22;63685;47.374;8.498;2022-10-16T10:04:12;23.00;64.60
75099;DHT22;63685;47.374;8.498;2022-10-16T10:06:44;23.10;64.50
75099;DHT22;63685;47.374;8.498;2022-10-16T10:09:23;23.10;64.70
75099;DHT22;63685;47.374;8.498;2022-10-16T10:11:51;23.20;64.30
75099;DHT22;63685;47.374;8.498;2022-10-16T10:14:35;23.20;64.20
75099;DHT22;63685;47.374;8.498;2022-10-16T10:17:09;23.30;64.10
75099;DHT22;63685;47.374;8.498;2022-10-16T10:19:46;23.40;64.00
75099;DHT22;63685;47.374;8.498;2022-10-16T10:33:14;23.70;63.40
75099;DHT22;63685;47.374;8.498;2022-10-16T10:36:27;23.70;63.30
75099;DHT22;63685;47.374;8.498;2022-10-16T10:38:51;23.80;63.10
75099;DHT22;63685;47.374;8.498;2022-10-16T10:49:54;24.00;62.50
75099;DHT22;63685;47.374;8.498;2022-10-16T10:52:34;24.10;62.50
75099;DHT22;63685;47.374;8.498;2022-10-16T11:00:48;24.10;62.40
75099;DHT22;63685;47.374;8.498;2022-10-16T11:06:20;24.10;62.30
75099;DHT22;63685;47.374;8.498;2022-10-16T11:09:09;24.00;62.30
75099;DHT22;63685;47.374;8.498;2022-10-16T11:11:54;23.90;62.30
75099;DHT22;63685;47.374;8.498;2022-10-16T11:14:46;23.90;62.40
75099;DHT22;63685;47.374;8.498;2022-10-16T11:17:27;23.90;62.60
75099;DHT22;63685;47.374;8.498;2022-10-16T11:19:58;23.80;62.80
75099;DHT22;63685;47.374;8.498;2022-10-16T11:28:08;23.60;63.20
75099;DHT22;63685;47.374;8.498;2022-10-16T11:36:00;23.40;63.80
75099;DHT22;63685;47.374;8.498;2022-10-16T11:38:43;23.40;63.90
75099;DHT22;63685;47.374;8.498;2022-10-16T11:44:05;23.40;64.10
75099;DHT22;63685;47.374;8.498;2022-10-16T11:46:32;23.40;64.70
75099;DHT22;63685;47.374;8.498;2022-10-16T11:49:14;23.40;64.10
75099;DHT22;63685;47.374;8.498;2022-10-16T11:51:50;23.50;64.00
75099;DHT22;63685;47.374;8.498;2022-10-16T11:54:41;23.60;63.90
75099;DHT22;63685;47.374;8.498;2022-10-16T11:57:17;23.70;63.90
75099;DHT22;63685;47.374;8.498;2022-10-16T12:05:18;23.90;63.20
75099;DHT22;63685;47.374;8.498;2022-10-16T12:10:29;24.20;62.60
75099;DHT22;63685;47.374;8.498;2022-10-16T12:12:57;24.30;62.40
75099;DHT22;63685;47.374;8.498;2022-10-16T12:15:26;24.40;62.20
75099;DHT22;63685;47.374;8.498;2022-10-16T12:17:52;24.50;61.90
75099;DHT22;63685;47.374;8.498;2022-10-16T12:20:25;24.60;61.80
75099;DHT22;63685;47.374;8.498;2022-10-16T12:22:55;24.60;61.70
75099;DHT22;63685;47.374;8.498;2022-10-16T12:25:39;24.70;61.50
75099;DHT22;63685;47.374;8.498;2022-10-16T12:28:19;24.80;61.20
75099;DHT22;63685;47.374;8.498;2022-10-16T12:31:06;24.80;61.20
75099;DHT22;63685;47.374;8.498;2022-10-16T12:33:40;24.80;61.20
75099;DHT22;63685;47.374;8.498;2022-10-16T12:36:25;24.80;61.10
75099;DHT22;63685;47.374;8.498;2022-10-16T12:38:52;24.80;61.10
75099;DHT22;63685;47.374;8.498;2022-10-16T12:41:35;24.80;61.10
75099;DHT22;63685;47.374;8.498;2022-10-16T12:44:01;24.80;60.90
75099;DHT22;63685;47.374;8.498;2022-10-16T12:51:35;24.70;61.10
75099;DHT22;63685;47.374;8.498;2022-10-16T12:59:51;24.80;61.80
75099;DHT22;63685;47.374;8.498;2022-10-16T13:07:55;24.80;61.20
75099;DHT22;63685;47.374;8.498;2022-10-16T13:13:40;24.80;61.00
75099;DHT22;63685;47.374;8.498;2022-10-16T13:19:21;24.80;61.20
75099;DHT22;63685;47.374;8.498;2022-10-16T13:27:10;24.70;61.20
75099;DHT22;63685;47.374;8.498;2022-10-16T13:29:38;24.70;61.30
75099;DHT22;63685;47.374;8.498;2022-10-16T13:32:10;24.60;61.50
75099;DHT22;63685;47.374;8.498;2022-10-16T13:34:47;24.60;61.60
75099;DHT22;63685;47.374;8.498;2022-10-16T13:37:18;24.50;61.70
75099;DHT22;63685;47.374;8.498;2022-10-16T13:39:44;24.50;61.80
75099;DHT22;63685;47.374;8.498;2022-10-16T13:42:13;24.50;61.90
75099;DHT22;63685;47.374;8.498;2022-10-16T13:44:46;24.50;62.00
75099;DHT22;63685;47.374;8.498;2022-10-16T13:47:24;24.50;62.10
75099;DHT22;63685;47.374;8.498;2022-10-16T13:50:02;24.50;62.10
75099;DHT22;63685;47.374;8.498;2022-10-16T13:52:29;24.50;62.10
75099;DHT22;63685;47.374;8.498;2022-10-16T13:54:55;24.50;62.20
75099;DHT22;63685;47.374;8.498;2022-10-16T13:57:23;24.50;62.10
75099;DHT22;63685;47.374;8.498;2022-10-16T13:59:49;24.50;62.30
75099;DHT22;63685;47.374;8.498;2022-10-16T14:02:25;24.50;62.20
75099;DHT22;63685;47.374;8.498;2022-10-16T14:04:53;24.50;62.20
75099;DHT22;63685;47.374;8.498;2022-10-16T14:07:28;24.60;62.20
75099;DHT22;63685;47.374;8.498;2022-10-16T14:09:54;24.60;62.10
75099;DHT22;63685;47.374;8.498;2022-10-16T14:12:20;24.70;62.10
75099;DHT22;63685;47.374;8.498;2022-10-16T14:14:51;24.70;61.90
75099;DHT22;63685;47.374;8.498;2022-10-16T14:17:27;24.70;61.90
75099;DHT22;63685;47.374;8.498;2022-10-16T14:19:55;24.70;61.80
75099;DHT22;63685;47.374;8.498;2022-10-16T14:22:34;24.70;62.40
75099;DHT22;63685;47.374;8.498;2022-10-16T14:25:01;24.70;61.80
75099;DHT22;63685;47.374;8.498;2022-10-16T14:27:34;24.60;61.70
75099;DHT22;63685;47.374;8.498;2022-10-16T14:30:15;24.60;61.90
75099;DHT22;63685;47.374;8.498;2022-10-16T14:32:52;24.50;62.10
75099;DHT22;63685;47.374;8.498;2022-10-16T14:37:56;24.50;62.40
75099;DHT22;63685;47.374;8.498;2022-10-16T14:40:25;24.40;62.40
75099;DHT22;63685;47.374;8.498;2022-10-16T14:42:51;24.40;62.40
75099;DHT22;63685;47.374;8.498;2022-10-16T14:45:22;24.30;62.50
75099;DHT22;63685;47.374;8.498;2022-10-16T14:47:52;24.30;62.60
75099;DHT22;63685;47.374;8.498;2022-10-16T14:50:19;24.30;62.70
75099;DHT22;63685;47.374;8.498;2022-10-16T14:52:44;24.20;62.90
75099;DHT22;63685;47.374;8.498;2022-10-16T14:55:10;24.20;63.00
75099;DHT22;63685;47.374;8.498;2022-10-16T14:57:37;24.10;63.00
75099;DHT22;63685;47.374;8.498;2022-10-16T15:00:12;24.00;63.20
75099;DHT22;63685;47.374;8.498;2022-10-16T15:02:38;24.00;63.40
75099;DHT22;63685;47.374;8.498;2022-10-16T15:05:19;24.00;63.50
75099;DHT22;63685;47.374;8.498;2022-10-16T15:07:46;23.90;63.60
75099;DHT22;63685;47.374;8.498;2022-10-16T15:10:16;23.90;64.30
75099;DHT22;63685;47.374;8.498;2022-10-16T15:12:42;23.80;63.80
75099;DHT22;63685;47.374;8.498;2022-10-16T15:17:49;23.70;64.10
75099;DHT22;63685;47.374;8.498;2022-10-16T15:20:18;23.70;64.20
75099;DHT22;63685;47.374;8.498;2022-10-16T15:22:43;23.60;64.30
75099;DHT22;63685;47.374;8.498;2022-10-16T15:27:50;23.50;64.40
75099;DHT22;63685;47.374;8.498;2022-10-16T15:30:15;23.50;64.60
75099;DHT22;63685;47.374;8.498;2022-10-16T15:32:41;23.50;64.60
75099;DHT22;63685;47.374;8.498;2022-10-16T15:35:08;23.40;64.70
75099;DHT22;63685;47.374;8.498;2022-10-16T15:37:34;23.40;64.80
75099;DHT22;63685;47.374;8.498;2022-10-16T15:40:00;23.30;64.80
75099;DHT22;63685;47.374;8.498;2022-10-16T15:42:25;23.40;65.00
75099;DHT22;63685;47.374;8.498;2022-10-16T15:44:51;23.30;65.00
75099;DHT22;63685;47.374;8.498;2022-10-16T15:47:16;23.30;65.10
75099;DHT22;63685;47.374;8.498;2022-10-16T15:49:42;23.30;65.20
75099;DHT22;63685;47.374;8.498;2022-10-16T15:52:07;23.20;65.20
75099;DHT22;63685;47.374;8.498;2022-10-16T15:54:33;23.20;65.30
75099;DHT22;63685;47.374;8.498;2022-10-16T15:56:58;23.20;65.40
75099;DHT22;63685;47.374;8.498;2022-10-16T15:59:24;23.20;65.40
75099;DHT22;63685;47.374;8.498;2022-10-16T16:01:49;23.20;65.40
75099;DHT22;63685;47.374;8.498;2022-10-16T16:04:15;23.20;65.40
75099;DHT22;63685;47.374;8.498;2022-10-16T16:06:42;23.20;65.60
75099;DHT22;63685;47.374;8.498;2022-10-16T16:09:10;23.10;65.60
75099;DHT22;63685;47.374;8.498;2022-10-16T16:11:37;23.10;65.70
75099;DHT22;63685;47.374;8.498;2022-10-16T16:14:05;23.10;65.70
75099;DHT22;63685;47.374;8.498;2022-10-16T16:16:30;23.10;65.80
75099;DHT22;63685;47.374;8.498;2022-10-16T16:18:57;23.00;65.80
75099;DHT22;63685;47.374;8.498;2022-10-16T16:21:22;23.00;65.80
75099;DHT22;63685;47.374;8.498;2022-10-16T16:23:48;23.00;65.90
75099;DHT22;63685;47.374;8.498;2022-10-16T16:26:23;23.00;65.90
75099;DHT22;63685;47.374;8.498;2022-10-16T16:28:53;23.00;66.00
75099;DHT22;63685;47.374;8.498;2022-10-16T16:31:20;23.00;66.00
75099;DHT22;63685;47.374;8.498;2022-10-16T16:33:45;22.90;66.10
75099;DHT22;63685;47.374;8.498;2022-10-16T16:36:11;22.90;66.10
75099;DHT22;63685;47.374;8.498;2022-10-16T16:38:36;22.90;66.10
75099;DHT22;63685;47.374;8.498;2022-10-16T16:41:16;22.90;66.20
75099;DHT22;63685;47.374;8.498;2022-10-16T16:43:42;22.90;66.30
75099;DHT22;63685;47.374;8.498;2022-10-16T16:46:08;22.90;66.30
75099;DHT22;63685;47.374;8.498;2022-10-16T16:48:34;22.80;66.30
75099;DHT22;63685;47.374;8.498;2022-10-16T16:51:08;22.80;66.40
75099;DHT22;63685;47.374;8.498;2022-10-16T16:53:35;22.80;66.40
75099;DHT22;63685;47.374;8.498;2022-10-16T16:56:05;22.80;66.50
75099;DHT22;63685;47.374;8.498;2022-10-16T16:58:31;22.80;66.50
75099;DHT22;63685;47.374;8.498;2022-10-16T17:00:58;22.80;66.50
75099;DHT22;63685;47.374;8.498;2022-10-16T17:03:31;22.80;66.60
75099;DHT22;63685;47.374;8.498;2022-10-16T17:05:59;22.80;66.60
75099;DHT22;63685;47.374;8.498;2022-10-16T17:08:25;22.80;66.60
75099;DHT22;63685;47.374;8.498;2022-10-16T17:10:50;22.80;66.60
75099;DHT22;63685;47.374;8.498;2022-10-16T17:13:21;22.70;66.60
75099;DHT22;63685;47.374;8.498;2022-10-16T17:15:48;22.70;66.60
75099;DHT22;63685;47.374;8.498;2022-10-16T17:18:14;22.70;66.70
75099;DHT22;63685;47.374;8.498;2022-10-16T17:20:39;22.70;66.70
75099;DHT22;63685;47.374;8.498;2022-10-16T17:23:05;22.70;66.70
75099;DHT22;63685;47.374;8.498;2022-10-16T17:25:31;22.70;66.80
75099;DHT22;63685;47.374;8.498;2022-10-16T17:27:57;22.70;66.80
75099;DHT22;63685;47.374;8.498;2022-10-16T17:30:25;22.70;66.80
75099;DHT22;63685;47.374;8.498;2022-10-16T17:32:51;22.70;66.80
75099;DHT22;63685;47.374;8.498;2022-10-16T17:35:16;22.70;66.80
75099;DHT22;63685;47.374;8.498;2022-10-16T17:37:42;22.70;66.90
75099;DHT22;63685;47.374;8.498;2022-10-16T17:40:09;22.70;66.90
75099;DHT22;63685;47.374;8.498;2022-10-16T17:42:34;22.70;67.00